Almond, New York
Current Conditions -  °F | °C
As of 1:54 AM on Monday 22 Dec 2014 (Local Time) from KDSV Reporting Station
Overcast Overcast  
Wind Chill: -6°   Ceiling: 2200
Heat Index: -2°   Visibility: 10mi
Dew Point: -6°   Wind: 9mph
Humidity: 72%   Direction: 140°SE
Pressure: 30.27"   Gusts: NA
Location:  42.32°N, 77.74°W
Report Text: KDSV 220654Z AUTO 14008KT 10SM OVC022 M02/M06 A3027 RMK AO2 SLP268 T10171061
Loading
Personal Weather Stations






























Interactive Weather Map New forecast layout! Learn more

10-Day Weather Forecast

Advertisements
Track Severe Weather on mobile